sensor_id;sensor_type;location;lat;lon;timestamp;pressure;altitude;pressure_sealevel;temperature;humidity
59053;BME280;44843;44.728;10.396;2023-06-22T00:02:13;100710.44;;;26.77;nan
59053;BME280;44843;44.728;10.396;2023-06-22T00:04:39;100716.69;;;26.84;nan
59053;BME280;44843;44.728;10.396;2023-06-22T00:07:04;100721.53;;;26.96;nan
59053;BME280;44843;44.728;10.396;2023-06-22T00:09:31;100723.72;;;27.07;nan
59053;BME280;44843;44.728;10.396;2023-06-22T00:11:56;100711.34;;;27.06;nan
59053;BME280;44843;44.728;10.396;2023-06-22T00:14:22;100717.44;;;27.15;nan
59053;BME280;44843;44.728;10.396;2023-06-22T00:16:47;100719.06;;;27.16;nan
59053;BME280;44843;44.728;10.396;2023-06-22T00:19:15;100712.06;;;27.15;nan
59053;BME280;44843;44.728;10.396;2023-06-22T00:21:40;100709.41;;;27.15;nan
59053;BME280;44843;44.728;10.396;2023-06-22T00:24:06;100703.59;;;27.11;nan
59053;BME280;44843;44.728;10.396;2023-06-22T00:26:31;100701.47;;;27.06;nan
59053;BME280;44843;44.728;10.396;2023-06-22T00:28:57;100699.41;;;26.87;nan
59053;BME280;44843;44.728;10.396;2023-06-22T00:31:22;100697.69;;;26.79;nan
59053;BME280;44843;44.728;10.396;2023-06-22T00:33:48;100692.28;;;26.73;nan
59053;BME280;44843;44.728;10.396;2023-06-22T00:36:15;100691.16;;;26.67;nan
59053;BME280;44843;44.728;10.396;2023-06-22T00:38:41;100692.00;;;26.52;nan
59053;BME280;44843;44.728;10.396;2023-06-22T00:41:07;100688.69;;;26.50;nan
59053;BME280;44843;44.728;10.396;2023-06-22T00:43:32;100691.72;;;26.47;nan
59053;BME280;44843;44.728;10.396;2023-06-22T00:45:58;100695.50;;;26.38;nan
59053;BME280;44843;44.728;10.396;2023-06-22T00:48:23;100698.19;;;26.38;nan
59053;BME280;44843;44.728;10.396;2023-06-22T00:50:49;100689.44;;;26.29;nan
59053;BME280;44843;44.728;10.396;2023-06-22T00:53:16;100701.22;;;26.20;nan
59053;BME280;44843;44.728;10.396;2023-06-22T00:55:44;100713.00;;;26.26;nan
59053;BME280;44843;44.728;10.396;2023-06-22T00:58:12;100701.50;;;26.40;nan
59053;BME280;44843;44.728;10.396;2023-06-22T01:00:40;100705.16;;;26.54;nan
59053;BME280;44843;44.728;10.396;2023-06-22T01:03:06;100705.56;;;26.66;nan
59053;BME280;44843;44.728;10.396;2023-06-22T01:05:35;100708.88;;;26.68;nan
59053;BME280;44843;44.728;10.396;2023-06-22T01:08:23;100705.84;;;26.56;nan
59053;BME280;44843;44.728;10.396;2023-06-22T01:11:01;100709.81;;;26.60;nan
59053;BME280;44843;44.728;10.396;2023-06-22T01:16:15;100713.31;;;26.61;nan
59053;BME280;44843;44.728;10.396;2023-06-22T01:18:43;100709.78;;;26.45;nan
59053;BME280;44843;44.728;10.396;2023-06-22T01:21:17;100712.28;;;26.32;nan
59053;BME280;44843;44.728;10.396;2023-06-22T01:24:15;100718.25;;;26.19;nan
59053;BME280;44843;44.728;10.396;2023-06-22T01:29:21;100719.84;;;26.14;nan
59053;BME280;44843;44.728;10.396;2023-06-22T01:31:49;100723.06;;;26.09;nan
59053;BME280;44843;44.728;10.396;2023-06-22T01:34:16;100728.97;;;26.04;nan
59053;BME280;44843;44.728;10.396;2023-06-22T01:36:42;100729.97;;;26.03;nan
59053;BME280;44843;44.728;10.396;2023-06-22T01:39:08;100726.09;;;26.06;nan
59053;BME280;44843;44.728;10.396;2023-06-22T01:41:37;100723.16;;;26.01;nan
59053;BME280;44843;44.728;10.396;2023-06-22T01:44:05;100738.16;;;26.02;nan
59053;BME280;44843;44.728;10.396;2023-06-22T01:46:36;100747.34;;;25.99;nan
59053;BME280;44843;44.728;10.396;2023-06-22T01:49:04;100750.69;;;26.01;nan
59053;BME280;44843;44.728;10.396;2023-06-22T01:51:30;100746.56;;;26.14;nan
59053;BME280;44843;44.728;10.396;2023-06-22T01:53:56;100736.16;;;26.19;nan
59053;BME280;44843;44.728;10.396;2023-06-22T01:56:21;100734.41;;;26.26;nan
59053;BME280;44843;44.728;10.396;2023-06-22T01:59:04;100735.91;;;26.28;nan
59053;BME280;44843;44.728;10.396;2023-06-22T02:01:37;100731.63;;;26.34;nan
59053;BME280;44843;44.728;10.396;2023-06-22T02:04:10;100732.19;;;26.29;nan
59053;BME280;44843;44.728;10.396;2023-06-22T02:06:39;100739.56;;;26.27;nan
59053;BME280;44843;44.728;10.396;2023-06-22T02:09:12;100747.66;;;26.04;nan
59053;BME280;44843;44.728;10.396;2023-06-22T02:11:41;100752.78;;;25.45;nan
59053;BME280;44843;44.728;10.396;2023-06-22T02:14:08;100740.75;;;25.49;nan
59053;BME280;44843;44.728;10.396;2023-06-22T02:16:34;100756.94;;;25.16;nan
59053;BME280;44843;44.728;10.396;2023-06-22T02:19:01;100752.66;;;25.07;nan
59053;BME280;44843;44.728;10.396;2023-06-22T02:21:31;100745.44;;;25.24;nan
59053;BME280;44843;44.728;10.396;2023-06-22T02:23:57;100751.31;;;25.19;nan
59053;BME280;44843;44.728;10.396;2023-06-22T02:26:25;100759.81;;;25.15;nan
59053;BME280;44843;44.728;10.396;2023-06-22T02:28:50;100758.94;;;25.14;nan
59053;BME280;44843;44.728;10.396;2023-06-22T02:31:16;100761.38;;;25.01;nan
59053;BME280;44843;44.728;10.396;2023-06-22T02:33:41;100758.94;;;24.91;nan
59053;BME280;44843;44.728;10.396;2023-06-22T02:36:07;100759.03;;;25.06;nan
59053;BME280;44843;44.728;10.396;2023-06-22T02:38:34;100759.84;;;25.06;nan
59053;BME280;44843;44.728;10.396;2023-06-22T02:41:02;100761.53;;;25.39;nan
59053;BME280;44843;44.728;10.396;2023-06-22T02:43:27;100763.56;;;25.52;nan
59053;BME280;44843;44.728;10.396;2023-06-22T02:45:53;100760.69;;;25.61;nan
59053;BME280;44843;44.728;10.396;2023-06-22T02:48:19;100768.53;;;25.78;nan
59053;BME280;44843;44.728;10.396;2023-06-22T02:50:44;100770.88;;;25.81;nan
59053;BME280;44843;44.728;10.396;2023-06-22T02:53:09;100761.84;;;25.82;nan
59053;BME280;44843;44.728;10.396;2023-06-22T02:55:35;100762.50;;;25.84;nan
59053;BME280;44843;44.728;10.396;2023-06-22T02:58:00;100761.19;;;25.80;nan
59053;BME280;44843;44.728;10.396;2023-06-22T03:00:30;100761.28;;;25.72;nan
59053;BME280;44843;44.728;10.396;2023-06-22T03:02:56;100757.72;;;25.56;nan
59053;BME280;44843;44.728;10.396;2023-06-22T03:05:22;100761.75;;;25.52;nan
59053;BME280;44843;44.728;10.396;2023-06-22T03:07:48;100755.34;;;25.38;nan
59053;BME280;44843;44.728;10.396;2023-06-22T03:10:14;100753.81;;;25.44;nan
59053;BME280;44843;44.728;10.396;2023-06-22T03:12:40;100761.16;;;25.42;nan
59053;BME280;44843;44.728;10.396;2023-06-22T03:15:07;100756.66;;;25.42;nan
59053;BME280;44843;44.728;10.396;2023-06-22T03:17:37;100765.00;;;25.39;nan
59053;BME280;44843;44.728;10.396;2023-06-22T03:20:04;100761.03;;;25.35;nan
59053;BME280;44843;44.728;10.396;2023-06-22T03:22:40;100758.91;;;25.31;nan
59053;BME280;44843;44.728;10.396;2023-06-22T03:25:07;100765.59;;;25.26;nan
59053;BME280;44843;44.728;10.396;2023-06-22T03:27:41;100764.53;;;25.36;nan
59053;BME280;44843;44.728;10.396;2023-06-22T03:30:08;100758.06;;;25.53;nan
59053;BME280;44843;44.728;10.396;2023-06-22T03:32:34;100765.38;;;25.59;nan
59053;BME280;44843;44.728;10.396;2023-06-22T03:35:00;100767.66;;;25.62;nan
59053;BME280;44843;44.728;10.396;2023-06-22T03:37:26;100775.03;;;25.60;nan
59053;BME280;44843;44.728;10.396;2023-06-22T03:39:52;100774.19;;;25.60;nan
59053;BME280;44843;44.728;10.396;2023-06-22T03:42:17;100771.38;;;25.61;nan
59053;BME280;44843;44.728;10.396;2023-06-22T03:44:43;100766.97;;;25.68;nan
59053;BME280;44843;44.728;10.396;2023-06-22T03:47:08;100766.50;;;25.65;nan
59053;BME280;44843;44.728;10.396;2023-06-22T03:49:34;100774.75;;;25.55;nan
59053;BME280;44843;44.728;10.396;2023-06-22T03:52:01;100770.81;;;25.43;nan
59053;BME280;44843;44.728;10.396;2023-06-22T03:54:30;100763.53;;;25.37;nan
59053;BME280;44843;44.728;10.396;2023-06-22T03:56:57;100767.91;;;25.29;nan
59053;BME280;44843;44.728;10.396;2023-06-22T03:59:22;100769.44;;;25.24;nan
59053;BME280;44843;44.728;10.396;2023-06-22T04:01:48;100778.44;;;25.23;nan
59053;BME280;44843;44.728;10.396;2023-06-22T04:04:14;100777.09;;;25.19;nan
59053;BME280;44843;44.728;10.396;2023-06-22T04:06:39;100770.63;;;25.21;nan
59053;BME280;44843;44.728;10.396;2023-06-22T04:09:05;100764.56;;;25.27;nan
59053;BME280;44843;44.728;10.396;2023-06-22T04:11:31;100771.88;;;25.34;nan
59053;BME280;44843;44.728;10.396;2023-06-22T04:13:56;100772.06;;;25.32;nan
59053;BME280;44843;44.728;10.396;2023-06-22T04:16:22;100761.19;;;25.34;nan
59053;BME280;44843;44.728;10.396;2023-06-22T04:18:47;100763.66;;;25.43;nan
59053;BME280;44843;44.728;10.396;2023-06-22T04:21:13;100772.66;;;25.65;nan
59053;BME280;44843;44.728;10.396;2023-06-22T04:23:38;100778.19;;;25.87;nan
59053;BME280;44843;44.728;10.396;2023-06-22T04:26:04;100774.19;;;26.06;nan
59053;BME280;44843;44.728;10.396;2023-06-22T04:28:29;100769.69;;;26.06;nan
59053;BME280;44843;44.728;10.396;2023-06-22T04:30:55;100771.91;;;26.18;nan
59053;BME280;44843;44.728;10.396;2023-06-22T04:33:23;100769.22;;;26.33;nan
59053;BME280;44843;44.728;10.396;2023-06-22T04:35:48;100771.38;;;26.37;nan
59053;BME280;44843;44.728;10.396;2023-06-22T04:38:14;100763.38;;;26.37;nan
59053;BME280;44843;44.728;10.396;2023-06-22T04:40:40;100756.16;;;26.52;nan
59053;BME280;44843;44.728;10.396;2023-06-22T04:43:05;100748.16;;;26.67;nan
59053;BME280;44843;44.728;10.396;2023-06-22T04:45:32;100748.13;;;26.23;nan
59053;BME280;44843;44.728;10.396;2023-06-22T04:47:57;100753.94;;;26.12;nan
59053;BME280;44843;44.728;10.396;2023-06-22T04:50:23;100752.47;;;26.09;nan
59053;BME280;44843;44.728;10.396;2023-06-22T04:52:49;100746.75;;;26.12;nan
59053;BME280;44843;44.728;10.396;2023-06-22T04:55:15;100753.47;;;26.23;nan
59053;BME280;44843;44.728;10.396;2023-06-22T04:57:45;100749.78;;;26.54;nan
59053;BME280;44843;44.728;10.396;2023-06-22T05:00:18;100761.47;;;27.12;nan
59053;BME280;44843;44.728;10.396;2023-06-22T05:02:46;100752.28;;;27.58;nan
59053;BME280;44843;44.728;10.396;2023-06-22T05:05:12;100754.84;;;27.94;nan
59053;BME280;44843;44.728;10.396;2023-06-22T05:07:45;100756.47;;;28.17;nan
59053;BME280;44843;44.728;10.396;2023-06-22T05:10:12;100748.25;;;28.25;nan
59053;BME280;44843;44.728;10.396;2023-06-22T05:12:38;100761.59;;;28.46;nan
59053;BME280;44843;44.728;10.396;2023-06-22T05:15:08;100747.53;;;28.79;nan
59053;BME280;44843;44.728;10.396;2023-06-22T05:17:34;100747.13;;;29.64;nan
59053;BME280;44843;44.728;10.396;2023-06-22T05:20:00;100740.91;;;30.23;nan
59053;BME280;44843;44.728;10.396;2023-06-22T05:22:26;100745.47;;;30.36;nan
59053;BME280;44843;44.728;10.396;2023-06-22T05:24:51;100734.56;;;30.69;nan
59053;BME280;44843;44.728;10.396;2023-06-22T05:27:17;100735.72;;;30.35;nan
59053;BME280;44843;44.728;10.396;2023-06-22T05:29:42;100733.78;;;30.62;nan
59053;BME280;44843;44.728;10.396;2023-06-22T05:32:08;100731.88;;;30.69;nan
59053;BME280;44843;44.728;10.396;2023-06-22T05:34:33;100731.78;;;30.96;nan
59053;BME280;44843;44.728;10.396;2023-06-22T05:36:59;100741.88;;;31.39;nan
59053;BME280;44843;44.728;10.396;2023-06-22T05:39:24;100734.50;;;31.85;nan
59053;BME280;44843;44.728;10.396;2023-06-22T05:41:51;100745.25;;;31.59;nan
59053;BME280;44843;44.728;10.396;2023-06-22T05:44:17;100748.47;;;32.00;nan
59053;BME280;44843;44.728;10.396;2023-06-22T05:46:44;100750.41;;;30.97;nan
59053;BME280;44843;44.728;10.396;2023-06-22T05:49:14;100755.00;;;29.65;nan
59053;BME280;44843;44.728;10.396;2023-06-22T05:51:40;100750.91;;;29.01;nan
59053;BME280;44843;44.728;10.396;2023-06-22T05:54:06;100746.81;;;29.05;nan
59053;BME280;44843;44.728;10.396;2023-06-22T05:56:33;100753.53;;;29.56;nan
59053;BME280;44843;44.728;10.396;2023-06-22T05:58:58;100757.09;;;31.83;nan
59053;BME280;44843;44.728;10.396;2023-06-22T06:01:23;100756.75;;;33.70;nan
59053;BME280;44843;44.728;10.396;2023-06-22T06:03:51;100757.69;;;33.99;nan
59053;BME280;44843;44.728;10.396;2023-06-22T06:06:17;100757.41;;;32.93;nan
59053;BME280;44843;44.728;10.396;2023-06-22T06:08:43;100752.44;;;31.97;nan
59053;BME280;44843;44.728;10.396;2023-06-22T06:11:08;100759.50;;;31.35;nan
59053;BME280;44843;44.728;10.396;2023-06-22T06:13:33;100759.84;;;31.52;nan
59053;BME280;44843;44.728;10.396;2023-06-22T06:15:59;100756.03;;;32.10;nan
59053;BME280;44843;44.728;10.396;2023-06-22T06:18:24;100752.56;;;32.28;nan
59053;BME280;44843;44.728;10.396;2023-06-22T06:20:50;100743.25;;;32.42;nan
59053;BME280;44843;44.728;10.396;2023-06-22T06:23:15;100733.69;;;32.28;nan
59053;BME280;44843;44.728;10.396;2023-06-22T06:25:41;100726.63;;;32.27;nan
59053;BME280;44843;44.728;10.396;2023-06-22T06:28:06;100738.81;;;32.29;nan
59053;BME280;44843;44.728;10.396;2023-06-22T06:30:32;100740.19;;;32.01;nan
59053;BME280;44843;44.728;10.396;2023-06-22T06:32:58;100739.28;;;31.82;nan
59053;BME280;44843;44.728;10.396;2023-06-22T06:35:24;100736.84;;;31.74;nan
59053;BME280;44843;44.728;10.396;2023-06-22T06:37:50;100738.38;;;31.64;nan
59053;BME280;44843;44.728;10.396;2023-06-22T06:40:17;100742.56;;;31.59;nan
59053;BME280;44843;44.728;10.396;2023-06-22T06:42:47;100734.16;;;31.74;nan
59053;BME280;44843;44.728;10.396;2023-06-22T06:45:16;100739.72;;;31.79;nan
59053;BME280;44843;44.728;10.396;2023-06-22T06:47:42;100740.75;;;31.78;nan
59053;BME280;44843;44.728;10.396;2023-06-22T06:50:08;100730.97;;;31.84;nan
59053;BME280;44843;44.728;10.396;2023-06-22T06:52:33;100733.38;;;31.92;nan
59053;BME280;44843;44.728;10.396;2023-06-22T06:54:59;100727.44;;;32.09;nan
59053;BME280;44843;44.728;10.396;2023-06-22T06:57:25;100726.16;;;32.11;nan
59053;BME280;44843;44.728;10.396;2023-06-22T06:59:54;100726.09;;;32.18;nan
59053;BME280;44843;44.728;10.396;2023-06-22T07:02:20;100724.59;;;31.53;nan
59053;BME280;44843;44.728;10.396;2023-06-22T07:04:46;100719.03;;;31.73;nan
59053;BME280;44843;44.728;10.396;2023-06-22T07:07:12;100724.22;;;31.50;nan
59053;BME280;44843;44.728;10.396;2023-06-22T07:09:37;100716.69;;;31.58;nan
59053;BME280;44843;44.728;10.396;2023-06-22T07:12:02;100721.53;;;31.93;nan
59053;BME280;44843;44.728;10.396;2023-06-22T07:14:28;100724.06;;;32.50;nan
59053;BME280;44843;44.728;10.396;2023-06-22T07:16:53;100725.66;;;32.39;nan
59053;BME280;44843;44.728;10.396;2023-06-22T07:19:27;100723.09;;;32.26;nan
59053;BME280;44843;44.728;10.396;2023-06-22T07:21:53;100731.88;;;32.21;nan
59053;BME280;44843;44.728;10.396;2023-06-22T07:24:22;100733.97;;;31.94;nan
59053;BME280;44843;44.728;10.396;2023-06-22T07:26:48;100737.09;;;31.98;nan
59053;BME280;44843;44.728;10.396;2023-06-22T07:29:18;100745.78;;;32.00;nan
59053;BME280;44843;44.728;10.396;2023-06-22T07:31:44;100737.13;;;31.91;nan
59053;BME280;44843;44.728;10.396;2023-06-22T07:34:10;100732.38;;;32.12;nan
59053;BME280;44843;44.728;10.396;2023-06-22T07:36:35;100733.50;;;31.79;nan
59053;BME280;44843;44.728;10.396;2023-06-22T07:39:02;100735.91;;;31.87;nan
59053;BME280;44843;44.728;10.396;2023-06-22T07:41:29;100740.31;;;32.07;nan
59053;BME280;44843;44.728;10.396;2023-06-22T07:43:54;100738.69;;;32.06;nan
59053;BME280;44843;44.728;10.396;2023-06-22T07:46:20;100746.31;;;32.27;nan
59053;BME280;44843;44.728;10.396;2023-06-22T07:48:45;100744.31;;;32.41;nan
59053;BME280;44843;44.728;10.396;2023-06-22T07:51:10;100729.88;;;32.54;nan
59053;BME280;44843;44.728;10.396;2023-06-22T07:53:38;100722.66;;;32.66;nan
59053;BME280;44843;44.728;10.396;2023-06-22T07:56:05;100726.03;;;32.80;nan
59053;BME280;44843;44.728;10.396;2023-06-22T07:58:32;100712.69;;;32.97;nan
59053;BME280;44843;44.728;10.396;2023-06-22T08:00:58;100716.44;;;32.29;nan
59053;BME280;44843;44.728;10.396;2023-06-22T08:03:23;100714.03;;;32.20;nan
59053;BME280;44843;44.728;10.396;2023-06-22T08:05:48;100712.56;;;31.56;nan
59053;BME280;44843;44.728;10.396;2023-06-22T08:08:15;100702.88;;;31.92;nan
59053;BME280;44843;44.728;10.396;2023-06-22T08:10:40;100707.88;;;31.70;nan
59053;BME280;44843;44.728;10.396;2023-06-22T08:13:06;100719.38;;;31.58;nan
59053;BME280;44843;44.728;10.396;2023-06-22T08:15:31;100724.91;;;31.89;nan
59053;BME280;44843;44.728;10.396;2023-06-22T08:17:57;100730.25;;;31.70;nan
59053;BME280;44843;44.728;10.396;2023-06-22T08:20:23;100731.13;;;32.14;nan
59053;BME280;44843;44.728;10.396;2023-06-22T08:22:48;100722.44;;;32.12;nan
59053;BME280;44843;44.728;10.396;2023-06-22T08:25:14;100733.28;;;32.24;nan
59053;BME280;44843;44.728;10.396;2023-06-22T08:27:39;100727.66;;;32.07;nan
59053;BME280;44843;44.728;10.396;2023-06-22T08:30:06;100725.06;;;32.19;nan
59053;BME280;44843;44.728;10.396;2023-06-22T08:32:32;100720.78;;;32.11;nan
59053;BME280;44843;44.728;10.396;2023-06-22T08:34:58;100714.44;;;31.99;nan
59053;BME280;44843;44.728;10.396;2023-06-22T08:37:23;100709.28;;;31.15;nan
59053;BME280;44843;44.728;10.396;2023-06-22T08:39:55;100692.06;;;31.23;nan
59053;BME280;44843;44.728;10.396;2023-06-22T08:42:21;100682.13;;;31.74;nan
59053;BME280;44843;44.728;10.396;2023-06-22T08:44:46;100687.69;;;31.54;nan
59053;BME280;44843;44.728;10.396;2023-06-22T08:47:11;100688.19;;;31.37;nan
59053;BME280;44843;44.728;10.396;2023-06-22T08:49:37;100696.66;;;32.35;nan
59053;BME280;44843;44.728;10.396;2023-06-22T08:52:02;100702.03;;;32.35;nan
59053;BME280;44843;44.728;10.396;2023-06-22T08:54:28;100710.66;;;32.25;nan
59053;BME280;44843;44.728;10.396;2023-06-22T08:56:53;100713.06;;;32.52;nan
59053;BME280;44843;44.728;10.396;2023-06-22T08:59:18;100711.75;;;32.73;nan
59053;BME280;44843;44.728;10.396;2023-06-22T09:01:44;100723.66;;;32.83;nan
59053;BME280;44843;44.728;10.396;2023-06-22T09:04:11;100722.88;;;32.95;nan
59053;BME280;44843;44.728;10.396;2023-06-22T09:06:37;100727.81;;;32.68;nan
59053;BME280;44843;44.728;10.396;2023-06-22T09:09:06;100728.88;;;32.67;nan
59053;BME280;44843;44.728;10.396;2023-06-22T09:11:31;100722.88;;;32.46;nan
59053;BME280;44843;44.728;10.396;2023-06-22T09:13:57;100721.69;;;32.23;nan
59053;BME280;44843;44.728;10.396;2023-06-22T09:16:22;100729.44;;;31.70;nan
59053;BME280;44843;44.728;10.396;2023-06-22T09:18:48;100714.88;;;31.96;nan
59053;BME280;44843;44.728;10.396;2023-06-22T09:21:14;100707.53;;;31.59;nan
59053;BME280;44843;44.728;10.396;2023-06-22T09:23:39;100703.16;;;31.65;nan
59053;BME280;44843;44.728;10.396;2023-06-22T09:26:05;100693.97;;;31.73;nan
59053;BME280;44843;44.728;10.396;2023-06-22T09:28:30;100684.13;;;31.28;nan
59053;BME280;44843;44.728;10.396;2023-06-22T09:30:56;100678.75;;;31.28;nan
59053;BME280;44843;44.728;10.396;2023-06-22T09:33:25;100669.94;;;31.39;nan
59053;BME280;44843;44.728;10.396;2023-06-22T09:35:50;100680.97;;;31.63;nan
59053;BME280;44843;44.728;10.396;2023-06-22T09:38:16;100692.97;;;31.67;nan
59053;BME280;44843;44.728;10.396;2023-06-22T09:40:42;100689.41;;;31.92;nan
59053;BME280;44843;44.728;10.396;2023-06-22T09:43:07;100684.41;;;31.95;nan
59053;BME280;44843;44.728;10.396;2023-06-22T09:45:32;100672.63;;;31.71;nan
59053;BME280;44843;44.728;10.396;2023-06-22T09:47:58;100684.84;;;31.92;nan
59053;BME280;44843;44.728;10.396;2023-06-22T09:50:23;100666.66;;;32.25;nan
59053;BME280;44843;44.728;10.396;2023-06-22T09:52:49;100659.25;;;32.20;nan
59053;BME280;44843;44.728;10.396;2023-06-22T09:55:20;100652.88;;;32.33;nan
59053;BME280;44843;44.728;10.396;2023-06-22T09:57:45;100656.03;;;32.11;nan
59053;BME280;44843;44.728;10.396;2023-06-22T10:00:11;100674.34;;;32.28;nan
59053;BME280;44843;44.728;10.396;2023-06-22T10:02:39;100687.53;;;32.54;nan
59053;BME280;44843;44.728;10.396;2023-06-22T10:05:04;100681.97;;;32.79;nan
59053;BME280;44843;44.728;10.396;2023-06-22T10:07:30;100693.50;;;32.56;nan
59053;BME280;44843;44.728;10.396;2023-06-22T10:09:55;100694.78;;;32.35;nan
59053;BME280;44843;44.728;10.396;2023-06-22T10:12:20;100689.00;;;32.32;nan
59053;BME280;44843;44.728;10.396;2023-06-22T10:14:46;100678.97;;;32.57;nan
59053;BME280;44843;44.728;10.396;2023-06-22T10:17:11;100676.88;;;32.41;nan
59053;BME280;44843;44.728;10.396;2023-06-22T10:19:37;100669.06;;;32.33;nan
59053;BME280;44843;44.728;10.396;2023-06-22T10:22:04;100666.09;;;32.04;nan
59053;BME280;44843;44.728;10.396;2023-06-22T10:24:30;100652.22;;;32.00;nan
59053;BME280;44843;44.728;10.396;2023-06-22T10:26:55;100659.56;;;32.30;nan
59053;BME280;44843;44.728;10.396;2023-06-22T10:29:21;100650.94;;;32.58;nan
59053;BME280;44843;44.728;10.396;2023-06-22T10:31:46;100657.72;;;32.12;nan
59053;BME280;44843;44.728;10.396;2023-06-22T10:34:11;100654.25;;;32.05;nan
59053;BME280;44843;44.728;10.396;2023-06-22T10:36:37;100650.88;;;32.77;nan
59053;BME280;44843;44.728;10.396;2023-06-22T10:39:02;100653.91;;;32.50;nan
59053;BME280;44843;44.728;10.396;2023-06-22T10:41:28;100650.22;;;32.14;nan
59053;BME280;44843;44.728;10.396;2023-06-22T10:43:55;100654.69;;;32.20;nan
59053;BME280;44843;44.728;10.396;2023-06-22T10:46:21;100648.31;;;32.33;nan
59053;BME280;44843;44.728;10.396;2023-06-22T10:48:46;100636.38;;;31.86;nan
59053;BME280;44843;44.728;10.396;2023-06-22T10:51:11;100628.59;;;32.33;nan
59053;BME280;44843;44.728;10.396;2023-06-22T10:53:37;100628.06;;;32.42;nan
59053;BME280;44843;44.728;10.396;2023-06-22T10:56:02;100623.00;;;32.64;nan
59053;BME280;44843;44.728;10.396;2023-06-22T10:58:27;100628.97;;;32.97;nan
59053;BME280;44843;44.728;10.396;2023-06-22T11:00:53;100634.69;;;32.89;nan
59053;BME280;44843;44.728;10.396;2023-06-22T11:03:18;100630.09;;;32.47;nan
59053;BME280;44843;44.728;10.396;2023-06-22T11:05:44;100625.03;;;32.69;nan
59053;BME280;44843;44.728;10.396;2023-06-22T11:08:09;100623.38;;;32.68;nan
59053;BME280;44843;44.728;10.396;2023-06-22T11:10:34;100625.31;;;32.31;nan
59053;BME280;44843;44.728;10.396;2023-06-22T11:13:00;100620.06;;;31.80;nan
59053;BME280;44843;44.728;10.396;2023-06-22T11:15:25;100618.38;;;32.05;nan
59053;BME280;44843;44.728;10.396;2023-06-22T11:17:51;100617.00;;;32.14;nan
59053;BME280;44843;44.728;10.396;2023-06-22T11:20:16;100600.81;;;32.32;nan
59053;BME280;44843;44.728;10.396;2023-06-22T11:22:41;100589.13;;;32.20;nan
59053;BME280;44843;44.728;10.396;2023-06-22T11:25:07;100578.88;;;32.40;nan
59053;BME280;44843;44.728;10.396;2023-06-22T11:27:33;100580.63;;;32.35;nan
59053;BME280;44843;44.728;10.396;2023-06-22T11:29:58;100570.06;;;32.33;nan
59053;BME280;44843;44.728;10.396;2023-06-22T11:32:24;100571.03;;;32.39;nan
59053;BME280;44843;44.728;10.396;2023-06-22T11:34:50;100564.16;;;32.85;nan
59053;BME280;44843;44.728;10.396;2023-06-22T11:37:15;100569.81;;;32.95;nan
59053;BME280;44843;44.728;10.396;2023-06-22T11:39:42;100563.34;;;32.96;nan
59053;BME280;44843;44.728;10.396;2023-06-22T11:42:07;100553.03;;;33.17;nan
59053;BME280;44843;44.728;10.396;2023-06-22T11:44:34;100555.72;;;33.17;nan
59053;BME280;44843;44.728;10.396;2023-06-22T11:46:59;100548.81;;;33.44;nan
59053;BME280;44843;44.728;10.396;2023-06-22T11:49:29;100543.88;;;33.41;nan
59053;BME280;44843;44.728;10.396;2023-06-22T11:51:54;100557.47;;;32.99;nan
59053;BME280;44843;44.728;10.396;2023-06-22T11:54:20;100541.25;;;32.99;nan
59053;BME280;44843;44.728;10.396;2023-06-22T11:56:45;100544.97;;;32.63;nan
59053;BME280;44843;44.728;10.396;2023-06-22T11:59:10;100537.50;;;32.47;nan
59053;BME280;44843;44.728;10.396;2023-06-22T12:01:36;100538.31;;;32.77;nan
59053;BME280;44843;44.728;10.396;2023-06-22T12:04:02;100539.91;;;32.67;nan
59053;BME280;44843;44.728;10.396;2023-06-22T12:06:31;100539.16;;;32.78;nan
59053;BME280;44843;44.728;10.396;2023-06-22T12:08:57;100529.94;;;32.55;nan
59053;BME280;44843;44.728;10.396;2023-06-22T12:11:22;100529.41;;;32.47;nan
59053;BME280;44843;44.728;10.396;2023-06-22T12:13:47;100528.94;;;32.80;nan
59053;BME280;44843;44.728;10.396;2023-06-22T12:16:13;100520.47;;;32.88;nan
59053;BME280;44843;44.728;10.396;2023-06-22T12:18:38;100531.50;;;32.75;nan
59053;BME280;44843;44.728;10.396;2023-06-22T12:21:03;100526.19;;;32.68;nan
59053;BME280;44843;44.728;10.396;2023-06-22T12:23:29;100527.13;;;32.62;nan
59053;BME280;44843;44.728;10.396;2023-06-22T12:25:54;100515.19;;;32.81;nan
59053;BME280;44843;44.728;10.396;2023-06-22T12:28:19;100520.50;;;33.00;nan
59053;BME280;44843;44.728;10.396;2023-06-22T12:30:45;100520.69;;;32.75;nan
59053;BME280;44843;44.728;10.396;2023-06-22T12:33:10;100513.56;;;32.92;nan
59053;BME280;44843;44.728;10.396;2023-06-22T12:35:36;100502.63;;;32.75;nan
59053;BME280;44843;44.728;10.396;2023-06-22T12:38:01;100503.91;;;32.73;nan
59053;BME280;44843;44.728;10.396;2023-06-22T12:40:28;100508.59;;;32.54;nan
59053;BME280;44843;44.728;10.396;2023-06-22T12:42:53;100510.38;;;32.83;nan
59053;BME280;44843;44.728;10.396;2023-06-22T12:45:19;100502.19;;;33.37;nan
59053;BME280;44843;44.728;10.396;2023-06-22T12:47:46;100511.94;;;33.15;nan
59053;BME280;44843;44.728;10.396;2023-06-22T12:50:11;100511.56;;;32.99;nan
59053;BME280;44843;44.728;10.396;2023-06-22T12:52:39;100508.78;;;33.18;nan
59053;BME280;44843;44.728;10.396;2023-06-22T12:55:06;100505.38;;;33.22;nan
59053;BME280;44843;44.728;10.396;2023-06-22T12:57:31;100496.63;;;32.73;nan
59053;BME280;44843;44.728;10.396;2023-06-22T12:59:57;100502.78;;;32.50;nan
59053;BME280;44843;44.728;10.396;2023-06-22T13:02:23;100500.13;;;32.62;nan